sensor_id;sensor_type;location;lat;lon;timestamp;P1;durP1;ratioP1;P2;durP2;ratioP2
76196;SDS011;64974;53.144;17.962;2023-06-22T00:01:21;15.50;;;9.93;;
76196;SDS011;64974;53.144;17.962;2023-06-22T00:03:50;16.20;;;10.20;;
76196;SDS011;64974;53.144;17.962;2023-06-22T00:06:15;17.05;;;10.73;;
76196;SDS011;64974;53.144;17.962;2023-06-22T00:08:41;14.82;;;10.55;;
76196;SDS011;64974;53.144;17.962;2023-06-22T00:11:06;18.90;;;13.93;;
76196;SDS011;64974;53.144;17.962;2023-06-22T00:13:31;23.90;;;17.52;;
76196;SDS011;64974;53.144;17.962;2023-06-22T00:15:57;30.25;;;23.00;;
76196;SDS011;64974;53.144;17.962;2023-06-22T00:18:22;44.40;;;33.75;;
76196;SDS011;64974;53.144;17.962;2023-06-22T00:20:52;49.55;;;38.03;;
76196;SDS011;64974;53.144;17.962;2023-06-22T00:23:22;54.15;;;40.33;;
76196;SDS011;64974;53.144;17.962;2023-06-22T00:25:48;58.38;;;39.95;;
76196;SDS011;64974;53.144;17.962;2023-06-22T00:28:14;58.13;;;43.17;;
76196;SDS011;64974;53.144;17.962;2023-06-22T00:30:39;58.40;;;40.78;;
76196;SDS011;64974;53.144;17.962;2023-06-22T00:33:04;57.58;;;41.45;;
76196;SDS011;64974;53.144;17.962;2023-06-22T00:35:32;57.72;;;40.75;;
76196;SDS011;64974;53.144;17.962;2023-06-22T00:37:58;60.55;;;40.38;;
76196;SDS011;64974;53.144;17.962;2023-06-22T00:40:26;44.20;;;29.77;;
76196;SDS011;64974;53.144;17.962;2023-06-22T00:43:07;39.83;;;26.45;;
76196;SDS011;64974;53.144;17.962;2023-06-22T00:45:51;29.77;;;21.63;;
76196;SDS011;64974;53.144;17.962;2023-06-22T00:48:17;29.67;;;20.17;;
76196;SDS011;64974;53.144;17.962;2023-06-22T00:50:42;29.85;;;21.13;;
76196;SDS011;64974;53.144;17.962;2023-06-22T00:53:08;24.83;;;17.30;;
76196;SDS011;64974;53.144;17.962;2023-06-22T00:55:37;23.17;;;16.65;;
76196;SDS011;64974;53.144;17.962;2023-06-22T00:58:05;25.00;;;16.98;;
76196;SDS011;64974;53.144;17.962;2023-06-22T01:00:33;20.40;;;14.10;;
76196;SDS011;64974;53.144;17.962;2023-06-22T01:02:58;22.85;;;14.10;;
76196;SDS011;64974;53.144;17.962;2023-06-22T01:05:24;19.27;;;14.20;;
76196;SDS011;64974;53.144;17.962;2023-06-22T01:10:41;19.67;;;12.82;;
76196;SDS011;64974;53.144;17.962;2023-06-22T01:13:18;16.67;;;11.82;;
76196;SDS011;64974;53.144;17.962;2023-06-22T01:18:32;15.38;;;11.32;;
76196;SDS011;64974;53.144;17.962;2023-06-22T01:21:01;13.05;;;9.93;;
76196;SDS011;64974;53.144;17.962;2023-06-22T01:23:36;13.13;;;9.35;;
76196;SDS011;64974;53.144;17.962;2023-06-22T01:26:16;13.05;;;9.57;;
76196;SDS011;64974;53.144;17.962;2023-06-22T01:28:45;14.45;;;8.93;;
76196;SDS011;64974;53.144;17.962;2023-06-22T01:31:16;11.57;;;8.20;;
76196;SDS011;64974;53.144;17.962;2023-06-22T01:33:43;12.30;;;8.95;;
76196;SDS011;64974;53.144;17.962;2023-06-22T01:36:11;11.95;;;8.63;;
76196;SDS011;64974;53.144;17.962;2023-06-22T01:38:37;10.98;;;7.70;;
76196;SDS011;64974;53.144;17.962;2023-06-22T01:41:03;11.45;;;8.02;;
76196;SDS011;64974;53.144;17.962;2023-06-22T01:43:29;9.52;;;7.45;;
76196;SDS011;64974;53.144;17.962;2023-06-22T01:45:54;10.63;;;7.22;;
76196;SDS011;64974;53.144;17.962;2023-06-22T01:48:20;10.43;;;7.53;;
76196;SDS011;64974;53.144;17.962;2023-06-22T01:50:46;9.82;;;7.28;;
76196;SDS011;64974;53.144;17.962;2023-06-22T01:53:12;10.85;;;6.53;;
76196;SDS011;64974;53.144;17.962;2023-06-22T01:55:37;10.63;;;7.05;;
76196;SDS011;64974;53.144;17.962;2023-06-22T01:58:02;10.48;;;6.80;;
76196;SDS011;64974;53.144;17.962;2023-06-22T02:00:28;12.68;;;7.85;;
76196;SDS011;64974;53.144;17.962;2023-06-22T02:02:59;9.60;;;7.07;;
76196;SDS011;64974;53.144;17.962;2023-06-22T02:05:28;10.77;;;7.05;;
76196;SDS011;64974;53.144;17.962;2023-06-22T02:10:25;10.70;;;7.38;;
76196;SDS011;64974;53.144;17.962;2023-06-22T02:12:51;11.10;;;7.85;;
76196;SDS011;64974;53.144;17.962;2023-06-22T02:15:18;8.50;;;6.95;;
76196;SDS011;64974;53.144;17.962;2023-06-22T02:17:43;11.80;;;6.97;;
76196;SDS011;64974;53.144;17.962;2023-06-22T02:20:13;9.27;;;7.10;;
76196;SDS011;64974;53.144;17.962;2023-06-22T02:22:39;12.13;;;7.47;;
76196;SDS011;64974;53.144;17.962;2023-06-22T02:25:04;9.57;;;7.32;;
76196;SDS011;64974;53.144;17.962;2023-06-22T02:27:30;10.40;;;7.60;;
76196;SDS011;64974;53.144;17.962;2023-06-22T02:29:55;11.60;;;8.02;;
76196;SDS011;64974;53.144;17.962;2023-06-22T02:32:20;11.23;;;7.43;;
76196;SDS011;64974;53.144;17.962;2023-06-22T02:34:45;10.07;;;7.38;;
76196;SDS011;64974;53.144;17.962;2023-06-22T02:37:12;9.35;;;7.47;;
76196;SDS011;64974;53.144;17.962;2023-06-22T02:39:39;9.68;;;7.18;;
76196;SDS011;64974;53.144;17.962;2023-06-22T02:42:05;8.65;;;6.50;;
76196;SDS011;64974;53.144;17.962;2023-06-22T02:44:30;10.02;;;7.20;;
76196;SDS011;64974;53.144;17.962;2023-06-22T02:46:56;11.45;;;6.22;;
76196;SDS011;64974;53.144;17.962;2023-06-22T02:49:21;10.05;;;6.00;;
76196;SDS011;64974;53.144;17.962;2023-06-22T02:51:47;11.18;;;5.63;;
76196;SDS011;64974;53.144;17.962;2023-06-22T02:54:13;10.10;;;5.43;;
76196;SDS011;64974;53.144;17.962;2023-06-22T02:56:38;7.32;;;4.80;;
76196;SDS011;64974;53.144;17.962;2023-06-22T02:59:05;9.18;;;5.72;;
76196;SDS011;64974;53.144;17.962;2023-06-22T03:01:31;7.72;;;4.82;;
76196;SDS011;64974;53.144;17.962;2023-06-22T03:04:02;7.25;;;5.18;;
76196;SDS011;64974;53.144;17.962;2023-06-22T03:06:28;7.47;;;5.10;;
76196;SDS011;64974;53.144;17.962;2023-06-22T03:08:58;6.20;;;4.63;;
76196;SDS011;64974;53.144;17.962;2023-06-22T03:11:24;7.00;;;4.82;;
76196;SDS011;64974;53.144;17.962;2023-06-22T03:13:50;7.72;;;4.78;;
76196;SDS011;64974;53.144;17.962;2023-06-22T03:16:17;9.77;;;5.38;;
76196;SDS011;64974;53.144;17.962;2023-06-22T03:18:42;7.82;;;5.05;;
76196;SDS011;64974;53.144;17.962;2023-06-22T03:21:08;9.43;;;5.80;;
76196;SDS011;64974;53.144;17.962;2023-06-22T03:23:33;8.35;;;5.90;;
76196;SDS011;64974;53.144;17.962;2023-06-22T03:25:58;8.68;;;5.15;;
76196;SDS011;64974;53.144;17.962;2023-06-22T03:28:24;7.97;;;5.35;;
76196;SDS011;64974;53.144;17.962;2023-06-22T03:30:49;9.38;;;6.03;;
76196;SDS011;64974;53.144;17.962;2023-06-22T03:33:14;8.60;;;6.00;;
76196;SDS011;64974;53.144;17.962;2023-06-22T03:35:40;10.07;;;7.20;;
76196;SDS011;64974;53.144;17.962;2023-06-22T03:38:05;9.80;;;5.75;;
76196;SDS011;64974;53.144;17.962;2023-06-22T03:40:30;10.63;;;6.13;;
76196;SDS011;64974;53.144;17.962;2023-06-22T03:42:55;8.95;;;5.30;;
76196;SDS011;64974;53.144;17.962;2023-06-22T03:45:21;9.47;;;5.13;;
76196;SDS011;64974;53.144;17.962;2023-06-22T03:47:46;8.48;;;5.30;;
76196;SDS011;64974;53.144;17.962;2023-06-22T03:50:11;7.43;;;4.70;;
76196;SDS011;64974;53.144;17.962;2023-06-22T03:52:38;6.00;;;3.90;;
76196;SDS011;64974;53.144;17.962;2023-06-22T03:55:04;6.95;;;4.55;;
76196;SDS011;64974;53.144;17.962;2023-06-22T03:57:30;8.32;;;4.20;;
76196;SDS011;64974;53.144;17.962;2023-06-22T03:59:56;7.57;;;4.82;;
76196;SDS011;64974;53.144;17.962;2023-06-22T04:02:22;8.38;;;4.70;;
76196;SDS011;64974;53.144;17.962;2023-06-22T04:04:48;7.30;;;4.65;;
76196;SDS011;64974;53.144;17.962;2023-06-22T04:07:13;7.00;;;4.50;;
76196;SDS011;64974;53.144;17.962;2023-06-22T04:09:38;6.53;;;4.70;;
76196;SDS011;64974;53.144;17.962;2023-06-22T04:12:04;7.43;;;4.40;;
76196;SDS011;64974;53.144;17.962;2023-06-22T04:14:29;7.57;;;4.88;;
76196;SDS011;64974;53.144;17.962;2023-06-22T04:16:55;6.95;;;4.47;;
76196;SDS011;64974;53.144;17.962;2023-06-22T04:19:20;7.78;;;4.60;;
76196;SDS011;64974;53.144;17.962;2023-06-22T04:21:45;10.45;;;4.57;;
76196;SDS011;64974;53.144;17.962;2023-06-22T04:24:13;6.40;;;4.47;;
76196;SDS011;64974;53.144;17.962;2023-06-22T04:26:39;7.43;;;4.60;;
76196;SDS011;64974;53.144;17.962;2023-06-22T04:29:06;8.23;;;5.07;;
76196;SDS011;64974;53.144;17.962;2023-06-22T04:31:33;6.95;;;4.40;;
76196;SDS011;64974;53.144;17.962;2023-06-22T04:34:01;10.38;;;4.63;;
76196;SDS011;64974;53.144;17.962;2023-06-22T04:36:32;6.55;;;4.20;;
76196;SDS011;64974;53.144;17.962;2023-06-22T04:39:06;8.00;;;4.03;;
76196;SDS011;64974;53.144;17.962;2023-06-22T04:41:32;10.93;;;4.40;;
76196;SDS011;64974;53.144;17.962;2023-06-22T04:44:06;8.05;;;3.97;;
76196;SDS011;64974;53.144;17.962;2023-06-22T04:46:32;7.68;;;3.83;;
76196;SDS011;64974;53.144;17.962;2023-06-22T04:48:59;7.72;;;3.88;;
76196;SDS011;64974;53.144;17.962;2023-06-22T04:51:24;8.90;;;5.45;;
76196;SDS011;64974;53.144;17.962;2023-06-22T04:53:54;7.82;;;4.38;;
76196;SDS011;64974;53.144;17.962;2023-06-22T04:56:26;7.18;;;3.83;;
76196;SDS011;64974;53.144;17.962;2023-06-22T04:58:53;11.20;;;4.32;;
76196;SDS011;64974;53.144;17.962;2023-06-22T05:01:20;10.82;;;4.38;;
76196;SDS011;64974;53.144;17.962;2023-06-22T05:03:47;8.60;;;3.90;;
76196;SDS011;64974;53.144;17.962;2023-06-22T05:06:13;7.72;;;4.22;;
76196;SDS011;64974;53.144;17.962;2023-06-22T05:08:39;8.57;;;4.35;;
76196;SDS011;64974;53.144;17.962;2023-06-22T05:11:04;7.22;;;4.68;;
76196;SDS011;64974;53.144;17.962;2023-06-22T05:13:30;7.80;;;4.00;;
76196;SDS011;64974;53.144;17.962;2023-06-22T05:15:55;7.60;;;4.47;;
76196;SDS011;64974;53.144;17.962;2023-06-22T05:18:26;6.55;;;4.03;;
76196;SDS011;64974;53.144;17.962;2023-06-22T05:20:52;6.22;;;3.95;;
76196;SDS011;64974;53.144;17.962;2023-06-22T05:23:18;7.53;;;4.30;;
76196;SDS011;64974;53.144;17.962;2023-06-22T05:25:44;6.85;;;4.00;;
76196;SDS011;64974;53.144;17.962;2023-06-22T05:28:09;7.40;;;4.50;;
76196;SDS011;64974;53.144;17.962;2023-06-22T05:30:36;7.78;;;4.15;;
76196;SDS011;64974;53.144;17.962;2023-06-22T05:33:01;8.43;;;4.13;;
76196;SDS011;64974;53.144;17.962;2023-06-22T05:35:27;8.77;;;4.28;;
76196;SDS011;64974;53.144;17.962;2023-06-22T05:37:52;9.73;;;3.95;;
76196;SDS011;64974;53.144;17.962;2023-06-22T05:40:17;8.50;;;4.05;;
76196;SDS011;64974;53.144;17.962;2023-06-22T05:42:42;8.15;;;4.05;;
76196;SDS011;64974;53.144;17.962;2023-06-22T05:45:08;7.72;;;4.45;;
76196;SDS011;64974;53.144;17.962;2023-06-22T05:47:34;6.43;;;3.92;;
76196;SDS011;64974;53.144;17.962;2023-06-22T05:49:59;7.90;;;4.07;;
76196;SDS011;64974;53.144;17.962;2023-06-22T05:52:25;6.40;;;3.85;;
76196;SDS011;64974;53.144;17.962;2023-06-22T05:54:50;6.85;;;3.45;;
76196;SDS011;64974;53.144;17.962;2023-06-22T05:57:15;8.85;;;4.18;;
76196;SDS011;64974;53.144;17.962;2023-06-22T05:59:41;10.50;;;4.43;;
76196;SDS011;64974;53.144;17.962;2023-06-22T06:02:06;6.78;;;3.47;;
76196;SDS011;64974;53.144;17.962;2023-06-22T06:04:31;8.90;;;4.20;;
76196;SDS011;64974;53.144;17.962;2023-06-22T06:06:57;8.35;;;3.25;;
76196;SDS011;64974;53.144;17.962;2023-06-22T06:09:22;5.72;;;3.50;;
76196;SDS011;64974;53.144;17.962;2023-06-22T06:11:47;7.72;;;4.13;;
76196;SDS011;64974;53.144;17.962;2023-06-22T06:14:13;6.90;;;3.33;;
76196;SDS011;64974;53.144;17.962;2023-06-22T06:16:38;5.07;;;3.40;;
76196;SDS011;64974;53.144;17.962;2023-06-22T06:19:03;5.43;;;3.22;;
76196;SDS011;64974;53.144;17.962;2023-06-22T06:21:29;5.75;;;2.55;;
76196;SDS011;64974;53.144;17.962;2023-06-22T06:23:54;5.40;;;2.78;;
76196;SDS011;64974;53.144;17.962;2023-06-22T06:26:19;5.30;;;3.30;;
76196;SDS011;64974;53.144;17.962;2023-06-22T06:28:53;4.30;;;2.80;;
76196;SDS011;64974;53.144;17.962;2023-06-22T06:31:19;5.78;;;3.28;;
76196;SDS011;64974;53.144;17.962;2023-06-22T06:33:44;4.55;;;2.40;;
76196;SDS011;64974;53.144;17.962;2023-06-22T06:36:10;5.80;;;2.55;;
76196;SDS011;64974;53.144;17.962;2023-06-22T06:38:35;6.10;;;2.65;;
76196;SDS011;64974;53.144;17.962;2023-06-22T06:41:00;4.43;;;2.78;;
76196;SDS011;64974;53.144;17.962;2023-06-22T06:43:26;4.47;;;2.67;;
76196;SDS011;64974;53.144;17.962;2023-06-22T06:45:51;5.28;;;2.50;;
76196;SDS011;64974;53.144;17.962;2023-06-22T06:48:16;5.20;;;2.80;;
76196;SDS011;64974;53.144;17.962;2023-06-22T06:50:42;4.60;;;2.58;;
76196;SDS011;64974;53.144;17.962;2023-06-22T06:53:09;5.38;;;2.95;;
76196;SDS011;64974;53.144;17.962;2023-06-22T06:55:34;5.25;;;2.90;;
76196;SDS011;64974;53.144;17.962;2023-06-22T06:57:59;3.83;;;2.83;;
76196;SDS011;64974;53.144;17.962;2023-06-22T07:00:25;5.45;;;2.67;;
76196;SDS011;64974;53.144;17.962;2023-06-22T07:02:51;4.97;;;3.03;;
76196;SDS011;64974;53.144;17.962;2023-06-22T07:05:16;6.13;;;3.17;;
76196;SDS011;64974;53.144;17.962;2023-06-22T07:07:41;6.55;;;3.05;;
76196;SDS011;64974;53.144;17.962;2023-06-22T07:10:07;5.45;;;3.10;;
76196;SDS011;64974;53.144;17.962;2023-06-22T07:12:33;5.85;;;2.70;;
76196;SDS011;64974;53.144;17.962;2023-06-22T07:15:05;5.63;;;2.53;;
76196;SDS011;64974;53.144;17.962;2023-06-22T07:17:34;4.70;;;2.90;;
76196;SDS011;64974;53.144;17.962;2023-06-22T07:20:00;5.57;;;2.97;;
76196;SDS011;64974;53.144;17.962;2023-06-22T07:22:26;3.97;;;2.20;;
76196;SDS011;64974;53.144;17.962;2023-06-22T07:24:51;4.15;;;2.85;;
76196;SDS011;64974;53.144;17.962;2023-06-22T07:27:17;6.68;;;2.70;;
76196;SDS011;64974;53.144;17.962;2023-06-22T07:29:44;5.53;;;2.33;;
76196;SDS011;64974;53.144;17.962;2023-06-22T07:32:10;5.25;;;2.75;;
76196;SDS011;64974;53.144;17.962;2023-06-22T07:34:35;5.32;;;3.05;;
76196;SDS011;64974;53.144;17.962;2023-06-22T07:37:01;4.47;;;2.47;;
76196;SDS011;64974;53.144;17.962;2023-06-22T07:39:26;5.45;;;2.50;;
76196;SDS011;64974;53.144;17.962;2023-06-22T07:41:53;6.82;;;2.70;;
76196;SDS011;64974;53.144;17.962;2023-06-22T07:44:18;5.00;;;2.72;;
76196;SDS011;64974;53.144;17.962;2023-06-22T07:46:43;4.45;;;2.50;;
76196;SDS011;64974;53.144;17.962;2023-06-22T07:49:09;4.28;;;2.47;;
76196;SDS011;64974;53.144;17.962;2023-06-22T07:51:34;6.60;;;3.40;;
76196;SDS011;64974;53.144;17.962;2023-06-22T07:54:00;3.88;;;2.67;;
76196;SDS011;64974;53.144;17.962;2023-06-22T07:56:25;4.78;;;2.58;;
76196;SDS011;64974;53.144;17.962;2023-06-22T07:58:50;4.03;;;2.80;;
76196;SDS011;64974;53.144;17.962;2023-06-22T08:01:16;6.60;;;2.80;;
76196;SDS011;64974;53.144;17.962;2023-06-22T08:03:42;6.40;;;2.67;;
76196;SDS011;64974;53.144;17.962;2023-06-22T08:06:07;4.95;;;2.42;;
76196;SDS011;64974;53.144;17.962;2023-06-22T08:08:34;6.25;;;3.00;;
76196;SDS011;64974;53.144;17.962;2023-06-22T08:11:02;5.28;;;2.90;;
76196;SDS011;64974;53.144;17.962;2023-06-22T08:13:28;5.05;;;2.40;;
76196;SDS011;64974;53.144;17.962;2023-06-22T08:15:53;6.03;;;2.40;;
76196;SDS011;64974;53.144;17.962;2023-06-22T08:18:19;6.85;;;2.53;;
76196;SDS011;64974;53.144;17.962;2023-06-22T08:20:44;6.50;;;2.47;;
76196;SDS011;64974;53.144;17.962;2023-06-22T08:23:09;4.20;;;2.55;;
76196;SDS011;64974;53.144;17.962;2023-06-22T08:25:35;3.65;;;2.22;;
76196;SDS011;64974;53.144;17.962;2023-06-22T08:28:01;5.90;;;2.55;;
76196;SDS011;64974;53.144;17.962;2023-06-22T08:30:27;4.47;;;2.25;;
76196;SDS011;64974;53.144;17.962;2023-06-22T08:32:52;7.72;;;2.90;;
76196;SDS011;64974;53.144;17.962;2023-06-22T08:35:18;5.43;;;2.85;;
76196;SDS011;64974;53.144;17.962;2023-06-22T08:37:44;5.20;;;2.58;;
76196;SDS011;64974;53.144;17.962;2023-06-22T08:40:15;5.78;;;2.80;;
76196;SDS011;64974;53.144;17.962;2023-06-22T08:42:40;5.43;;;2.65;;
76196;SDS011;64974;53.144;17.962;2023-06-22T08:45:06;5.68;;;2.70;;
76196;SDS011;64974;53.144;17.962;2023-06-22T08:47:32;3.47;;;2.38;;
76196;SDS011;64974;53.144;17.962;2023-06-22T08:49:57;4.15;;;2.20;;
76196;SDS011;64974;53.144;17.962;2023-06-22T08:52:23;4.80;;;2.67;;
76196;SDS011;64974;53.144;17.962;2023-06-22T08:54:48;3.28;;;2.00;;
76196;SDS011;64974;53.144;17.962;2023-06-22T08:57:14;3.78;;;2.30;;
76196;SDS011;64974;53.144;17.962;2023-06-22T08:59:39;4.90;;;2.47;;
76196;SDS011;64974;53.144;17.962;2023-06-22T09:02:05;4.35;;;2.00;;
76196;SDS011;64974;53.144;17.962;2023-06-22T09:04:30;3.65;;;2.25;;
76196;SDS011;64974;53.144;17.962;2023-06-22T09:06:59;4.57;;;2.40;;
76196;SDS011;64974;53.144;17.962;2023-06-22T09:09:25;4.82;;;2.20;;
76196;SDS011;64974;53.144;17.962;2023-06-22T09:11:50;5.13;;;2.65;;
76196;SDS011;64974;53.144;17.962;2023-06-22T09:14:16;4.05;;;2.22;;
76196;SDS011;64974;53.144;17.962;2023-06-22T09:16:41;4.25;;;1.98;;
76196;SDS011;64974;53.144;17.962;2023-06-22T09:19:07;5.88;;;2.20;;
76196;SDS011;64974;53.144;17.962;2023-06-22T09:21:32;4.78;;;2.33;;
76196;SDS011;64974;53.144;17.962;2023-06-22T09:23:57;5.63;;;2.33;;
76196;SDS011;64974;53.144;17.962;2023-06-22T09:26:23;4.28;;;2.63;;
76196;SDS011;64974;53.144;17.962;2023-06-22T09:28:49;3.83;;;2.20;;
76196;SDS011;64974;53.144;17.962;2023-06-22T09:31:14;3.80;;;2.38;;
76196;SDS011;64974;53.144;17.962;2023-06-22T09:33:41;4.93;;;2.40;;
76196;SDS011;64974;53.144;17.962;2023-06-22T09:36:07;4.28;;;2.60;;
76196;SDS011;64974;53.144;17.962;2023-06-22T09:38:38;11.80;;;2.97;;
76196;SDS011;64974;53.144;17.962;2023-06-22T09:41:04;4.60;;;2.20;;
76196;SDS011;64974;53.144;17.962;2023-06-22T09:43:30;3.78;;;2.05;;
76196;SDS011;64974;53.144;17.962;2023-06-22T09:45:56;3.80;;;2.00;;
76196;SDS011;64974;53.144;17.962;2023-06-22T09:48:21;4.57;;;2.00;;
76196;SDS011;64974;53.144;17.962;2023-06-22T09:50:47;3.92;;;1.83;;
76196;SDS011;64974;53.144;17.962;2023-06-22T09:53:12;3.70;;;2.00;;
76196;SDS011;64974;53.144;17.962;2023-06-22T09:55:38;4.35;;;1.98;;
76196;SDS011;64974;53.144;17.962;2023-06-22T09:58:03;5.13;;;2.05;;
76196;SDS011;64974;53.144;17.962;2023-06-22T10:00:28;4.82;;;2.40;;
76196;SDS011;64974;53.144;17.962;2023-06-22T10:02:54;4.95;;;2.30;;
76196;SDS011;64974;53.144;17.962;2023-06-22T10:05:20;4.43;;;2.10;;
76196;SDS011;64974;53.144;17.962;2023-06-22T10:07:46;3.15;;;2.00;;
76196;SDS011;64974;53.144;17.962;2023-06-22T10:10:12;4.18;;;2.33;;
76196;SDS011;64974;53.144;17.962;2023-06-22T10:12:41;5.82;;;2.58;;
76196;SDS011;64974;53.144;17.962;2023-06-22T10:15:08;3.38;;;2.30;;
76196;SDS011;64974;53.144;17.962;2023-06-22T10:17:33;3.58;;;2.13;;
76196;SDS011;64974;53.144;17.962;2023-06-22T10:19:58;3.28;;;2.35;;
76196;SDS011;64974;53.144;17.962;2023-06-22T10:22:31;4.28;;;2.33;;
76196;SDS011;64974;53.144;17.962;2023-06-22T10:24:56;4.60;;;2.53;;
76196;SDS011;64974;53.144;17.962;2023-06-22T10:27:22;4.32;;;2.40;;
76196;SDS011;64974;53.144;17.962;2023-06-22T10:29:47;5.80;;;2.38;;
76196;SDS011;64974;53.144;17.962;2023-06-22T10:32:12;4.75;;;2.30;;
76196;SDS011;64974;53.144;17.962;2023-06-22T10:34:38;5.60;;;2.60;;
76196;SDS011;64974;53.144;17.962;2023-06-22T10:37:03;5.53;;;3.05;;
76196;SDS011;64974;53.144;17.962;2023-06-22T10:39:29;5.00;;;2.58;;
76196;SDS011;64974;53.144;17.962;2023-06-22T10:41:54;3.72;;;2.50;;
76196;SDS011;64974;53.144;17.962;2023-06-22T10:44:21;3.80;;;2.15;;
76196;SDS011;64974;53.144;17.962;2023-06-22T10:46:46;4.00;;;2.10;;
76196;SDS011;64974;53.144;17.962;2023-06-22T10:49:11;3.40;;;2.05;;
76196;SDS011;64974;53.144;17.962;2023-06-22T10:51:37;3.83;;;2.25;;
76196;SDS011;64974;53.144;17.962;2023-06-22T10:54:02;3.45;;;2.20;;
76196;SDS011;64974;53.144;17.962;2023-06-22T10:56:29;3.63;;;2.20;;
76196;SDS011;64974;53.144;17.962;2023-06-22T10:58:54;4.85;;;2.70;;
76196;SDS011;64974;53.144;17.962;2023-06-22T11:01:20;4.57;;;2.33;;
76196;SDS011;64974;53.144;17.962;2023-06-22T11:03:46;4.18;;;2.05;;
76196;SDS011;64974;53.144;17.962;2023-06-22T11:06:11;3.42;;;1.92;;
76196;SDS011;64974;53.144;17.962;2023-06-22T11:08:36;6.32;;;2.20;;
76196;SDS011;64974;53.144;17.962;2023-06-22T11:11:01;3.53;;;2.05;;
76196;SDS011;64974;53.144;17.962;2023-06-22T11:13:27;5.28;;;2.50;;
76196;SDS011;64974;53.144;17.962;2023-06-22T11:15:52;4.55;;;2.15;;
76196;SDS011;64974;53.144;17.962;2023-06-22T11:18:17;4.95;;;2.42;;
76196;SDS011;64974;53.144;17.962;2023-06-22T11:20:43;3.72;;;2.35;;
76196;SDS011;64974;53.144;17.962;2023-06-22T11:23:09;3.50;;;2.08;;
76196;SDS011;64974;53.144;17.962;2023-06-22T11:25:35;4.38;;;2.20;;
76196;SDS011;64974;53.144;17.962;2023-06-22T11:28:03;5.03;;;2.15;;
76196;SDS011;64974;53.144;17.962;2023-06-22T11:30:28;3.53;;;1.90;;
76196;SDS011;64974;53.144;17.962;2023-06-22T11:32:54;4.40;;;2.20;;
76196;SDS011;64974;53.144;17.962;2023-06-22T11:35:19;4.03;;;2.00;;
76196;SDS011;64974;53.144;17.962;2023-06-22T11:37:44;5.80;;;2.08;;
76196;SDS011;64974;53.144;17.962;2023-06-22T11:40:10;3.42;;;2.08;;
76196;SDS011;64974;53.144;17.962;2023-06-22T11:42:36;3.33;;;1.88;;
76196;SDS011;64974;53.144;17.962;2023-06-22T11:45:01;4.47;;;2.25;;
76196;SDS011;64974;53.144;17.962;2023-06-22T11:47:27;3.92;;;1.88;;
76196;SDS011;64974;53.144;17.962;2023-06-22T11:49:52;5.00;;;1.90;;
76196;SDS011;64974;53.144;17.962;2023-06-22T11:52:18;4.68;;;2.17;;
76196;SDS011;64974;53.144;17.962;2023-06-22T11:54:44;3.35;;;1.92;;
76196;SDS011;64974;53.144;17.962;2023-06-22T11:57:10;4.00;;;2.50;;
76196;SDS011;64974;53.144;17.962;2023-06-22T11:59:36;3.53;;;2.00;;
76196;SDS011;64974;53.144;17.962;2023-06-22T12:02:01;3.92;;;1.70;;
76196;SDS011;64974;53.144;17.962;2023-06-22T12:04:26;4.93;;;2.10;;
76196;SDS011;64974;53.144;17.962;2023-06-22T12:06:52;4.40;;;2.38;;
76196;SDS011;64974;53.144;17.962;2023-06-22T12:09:17;3.03;;;1.65;;
76196;SDS011;64974;53.144;17.962;2023-06-22T12:11:42;3.80;;;2.13;;
76196;SDS011;64974;53.144;17.962;2023-06-22T12:14:08;3.90;;;1.90;;
76196;SDS011;64974;53.144;17.962;2023-06-22T12:16:33;4.60;;;1.98;;
76196;SDS011;64974;53.144;17.962;2023-06-22T12:18:58;3.17;;;2.10;;
76196;SDS011;64974;53.144;17.962;2023-06-22T12:21:24;4.13;;;2.15;;
76196;SDS011;64974;53.144;17.962;2023-06-22T12:23:49;3.92;;;2.17;;
76196;SDS011;64974;53.144;17.962;2023-06-22T12:26:14;6.35;;;2.55;;
76196;SDS011;64974;53.144;17.962;2023-06-22T12:28:40;3.63;;;2.20;;
76196;SDS011;64974;53.144;17.962;2023-06-22T12:31:05;3.58;;;2.00;;
76196;SDS011;64974;53.144;17.962;2023-06-22T12:33:30;4.85;;;2.60;;
76196;SDS011;64974;53.144;17.962;2023-06-22T12:35:56;4.30;;;2.15;;
76196;SDS011;64974;53.144;17.962;2023-06-22T12:38:22;14.27;;;4.40;;
76196;SDS011;64974;53.144;17.962;2023-06-22T12:40:47;5.53;;;2.67;;
76196;SDS011;64974;53.144;17.962;2023-06-22T12:43:14;4.38;;;2.30;;
76196;SDS011;64974;53.144;17.962;2023-06-22T12:45:39;3.63;;;2.20;;
76196;SDS011;64974;53.144;17.962;2023-06-22T12:48:05;3.90;;;2.38;;
76196;SDS011;64974;53.144;17.962;2023-06-22T12:50:30;3.47;;;2.00;;
76196;SDS011;64974;53.144;17.962;2023-06-22T12:52:56;3.80;;;1.83;;
76196;SDS011;64974;53.144;17.962;2023-06-22T12:55:21;6.32;;;2.40;;
76196;SDS011;64974;53.144;17.962;2023-06-22T12:57:46;3.50;;;2.17;;
76196;SDS011;64974;53.144;17.962;2023-06-22T13:00:12;4.38;;;2.10;;
76196;SDS011;64974;53.144;17.962;2023-06-22T13:02:37;3.90;;;2.10;;
76196;SDS011;64974;53.144;17.962;2023-06-22T13:05:03;5.00;;;2.38;;
76196;SDS011;64974;53.144;17.962;2023-06-22T13:07:30;5.80;;;2.40;;
76196;SDS011;64974;53.144;17.962;2023-06-22T13:09:55;4.28;;;2.15;;
76196;SDS011;64974;53.144;17.962;2023-06-22T13:12:21;3.60;;;2.08;;
76196;SDS011;64974;53.144;17.962;2023-06-22T13:14:46;3.33;;;1.90;;
76196;SDS011;64974;53.144;17.962;2023-06-22T13:17:12;3.83;;;2.35;;
76196;SDS011;64974;53.144;17.962;2023-06-22T13:19:38;5.00;;;2.45;;
76196;SDS011;64974;53.144;17.962;2023-06-22T13:22:03;3.42;;;2.22;;
76196;SDS011;64974;53.144;17.962;2023-06-22T13:24:29;5.78;;;2.50;;
76196;SDS011;64974;53.144;17.962;2023-06-22T13:26:54;4.63;;;2.28;;
76196;SDS011;64974;53.144;17.962;2023-06-22T13:29:20;4.85;;;2.50;;
76196;SDS011;64974;53.144;17.962;2023-06-22T13:31:45;4.68;;;2.10;;
76196;SDS011;64974;53.144;17.962;2023-06-22T13:34:11;4.53;;;2.28;;
76196;SDS011;64974;53.144;17.962;2023-06-22T13:36:36;4.18;;;2.40;;
76196;SDS011;64974;53.144;17.962;2023-06-22T13:39:02;3.78;;;2.35;;
76196;SDS011;64974;53.144;17.962;2023-06-22T13:41:28;5.18;;;2.70;;
76196;SDS011;64974;53.144;17.962;2023-06-22T13:43:54;4.60;;;2.25;;
76196;SDS011;64974;53.144;17.962;2023-06-22T13:46:19;5.13;;;2.35;;
76196;SDS011;64974;53.144;17.962;2023-06-22T13:48:45;3.97;;;2.58;;
76196;SDS011;64974;53.144;17.962;2023-06-22T13:51:10;3.30;;;1.98;;
76196;SDS011;64974;53.144;17.962;2023-06-22T13:53:35;4.30;;;2.58;;
76196;SDS011;64974;53.144;17.962;2023-06-22T13:56:01;3.83;;;2.20;;
76196;SDS011;64974;53.144;17.962;2023-06-22T13:58:26;5.15;;;2.65;;
76196;SDS011;64974;53.144;17.962;2023-06-22T14:00:51;4.20;;;2.40;;
76196;SDS011;64974;53.144;17.962;2023-06-22T14:03:17;4.10;;;2.35;;
76196;SDS011;64974;53.144;17.962;2023-06-22T14:05:42;4.03;;;2.25;;
76196;SDS011;64974;53.144;17.962;2023-06-22T14:08:08;4.00;;;2.20;;
76196;SDS011;64974;53.144;17.962;2023-06-22T14:10:34;4.40;;;2.35;;
76196;SDS011;64974;53.144;17.962;2023-06-22T14:12:59;3.90;;;2.53;;
76196;SDS011;64974;53.144;17.962;2023-06-22T14:15:25;5.03;;;2.50;;
76196;SDS011;64974;53.144;17.962;2023-06-22T14:17:50;4.07;;;2.35;;
76196;SDS011;64974;53.144;17.962;2023-06-22T14:20:16;3.28;;;2.10;;
76196;SDS011;64974;53.144;17.962;2023-06-22T14:22:42;3.10;;;2.05;;
76196;SDS011;64974;53.144;17.962;2023-06-22T14:25:07;3.72;;;2.60;;
76196;SDS011;64974;53.144;17.962;2023-06-22T14:27:33;6.82;;;2.78;;
76196;SDS011;64974;53.144;17.962;2023-06-22T14:29:58;4.65;;;2.70;;
76196;SDS011;64974;53.144;17.962;2023-06-22T14:32:23;4.95;;;2.60;;